Time;durP1;ratioP1;P1;durP2;ratioP2;P2;SDS_P1;SDS_P2;PMS_P1;PMS_P2;Temp;Humidity;BMP_temperature;BMP_pressure;BME280_temperature;BME280_humidity;BME280_pressure;Samples;Min_cycle;Max_cycle;Signal;HPM_P1;HPM_P2
2021/03/11 00:00:54;;;;;;;8.13;2.63;;;24.30;99.90;;;;;;5051070;28;20547;-71
2021/03/11 00:03:24;;;;;;;5.17;1.97;;;24.30;99.90;;;;;;5052574;28;20175;-71
2021/03/11 00:05:52;;;;;;;10.50;1.83;;;24.30;99.90;;;;;;5052634;28;20670;-71
2021/03/11 00:08:20;;;;;;;12.33;2.70;;;24.20;99.90;;;;;;5050487;28;20184;-71
2021/03/11 00:10:48;;;;;;;9.87;2.40;;;24.20;99.90;;;;;;5046606;28;20224;-71
2021/03/11 00:13:15;;;;;;;11.00;3.63;;;24.00;99.90;;;;;;5045045;28;20184;-72
2021/03/11 00:15:43;;;;;;;9.80;2.23;;;23.80;99.90;;;;;;5035808;28;20259;-71
2021/03/11 00:18:12;;;;;;;10.33;2.10;;;23.80;99.90;;;;;;5038042;28;20204;-73
2021/03/11 00:20:40;;;;;;;6.37;2.10;;;23.80;99.90;;;;;;5050437;28;20187;-71
2021/03/11 00:23:08;;;;;;;10.20;2.23;;;23.80;99.90;;;;;;5041456;28;20276;-69
2021/03/11 00:25:36;;;;;;;6.63;2.57;;;23.80;99.90;;;;;;5044927;28;20290;-71
2021/03/11 00:28:05;;;;;;;9.10;2.23;;;23.90;99.90;;;;;;5049787;28;20629;-70
2021/03/11 00:30:33;;;;;;;8.80;2.13;;;23.90;99.90;;;;;;5048927;28;20219;-70
2021/03/11 00:33:00;;;;;;;19.73;3.40;;;24.10;99.90;;;;;;5051213;28;20234;-71
2021/03/11 00:35:28;;;;;;;11.83;2.47;;;24.30;99.70;;;;;;5051504;28;20242;-71
2021/03/11 00:37:56;;;;;;;9.23;2.53;;;24.50;99.40;;;;;;5049092;28;20368;-71
2021/03/11 00:40:24;;;;;;;7.83;2.47;;;24.80;99.00;;;;;;5051537;28;20180;-71
2021/03/11 00:42:52;;;;;;;6.80;2.27;;;24.90;98.80;;;;;;5050280;28;20566;-71
2021/03/11 00:45:19;;;;;;;9.10;2.47;;;25.20;98.40;;;;;;5048857;28;20616;-73
2021/03/11 00:47:47;;;;;;;6.33;2.07;;;25.40;98.40;;;;;;5053831;28;20202;-69
2021/03/11 00:50:18;;;;;;;12.83;2.37;;;25.40;97.90;;;;;;5057625;28;20601;-70
2021/03/11 00:52:46;;;;;;;13.17;2.43;;;25.50;97.60;;;;;;5046691;28;20193;-71
2021/03/11 00:55:15;;;;;;;11.57;2.27;;;25.80;97.40;;;;;;5045191;28;20184;-70
2021/03/11 00:57:42;;;;;;;11.27;1.97;;;25.80;97.00;;;;;;5048685;28;20188;-70
2021/03/11 01:00:13;;;;;;;7.53;1.90;;;25.70;97.10;;;;;;5052698;28;20196;-71
2021/03/11 01:02:40;;;;;;;13.67;2.20;;;25.90;97.00;;;;;;5051988;28;20179;-70
2021/03/11 01:05:08;;;;;;;7.53;2.00;;;26.30;96.40;;;;;;5051129;28;20188;-71
2021/03/11 01:07:35;;;;;;;12.50;2.37;;;26.40;96.00;;;;;;5053445;28;20223;-71
2021/03/11 01:10:04;;;;;;;9.97;2.10;;;26.40;96.10;;;;;;5052280;28;20219;-71
2021/03/11 01:12:32;;;;;;;6.93;1.93;;;26.50;96.00;;;;;;5049056;28;20314;-72
2021/03/11 01:14:59;;;;;;;10.80;1.87;;;26.80;95.10;;;;;;5050704;28;20176;-70
2021/03/11 01:17:26;;;;;;;8.50;2.37;;;26.80;95.50;;;;;;5051204;28;20183;-69
2021/03/11 01:19:53;;;;;;;9.23;2.37;;;26.80;94.90;;;;;;5054307;28;20180;-70
2021/03/11 01:22:21;;;;;;;8.10;2.03;;;26.70;94.80;;;;;;5053471;28;20190;-70
2021/03/11 01:24:48;;;;;;;5.73;2.00;;;27.00;94.80;;;;;;5054967;28;20324;-71
2021/03/11 01:27:15;;;;;;;7.73;2.20;;;27.10;94.10;;;;;;5053990;28;20692;-71
2021/03/11 01:29:43;;;;;;;7.90;2.13;;;27.30;94.20;;;;;;5062088;28;20215;-71
2021/03/11 01:32:10;;;;;;;8.20;2.00;;;27.80;93.80;;;;;;5054905;28;20270;-71
2021/03/11 01:34:37;;;;;;;7.07;1.73;;;27.90;93.10;;;;;;5054690;28;20266;-71
2021/03/11 01:37:05;;;;;;;7.07;2.00;;;27.40;93.20;;;;;;5054614;28;20188;-71
2021/03/11 01:39:32;;;;;;;6.97;2.10;;;27.00;94.00;;;;;;5055741;28;20194;-71
2021/03/11 01:41:59;;;;;;;11.37;2.03;;;27.10;93.80;;;;;;5057455;28;20530;-71
2021/03/11 01:44:27;;;;;;;5.87;1.83;;;27.50;93.70;;;;;;5051403;28;20191;-69
2021/03/11 01:46:54;;;;;;;7.17;2.00;;;28.10;93.30;;;;;;5054120;28;20180;-68
2021/03/11 01:49:21;;;;;;;4.80;1.90;;;28.10;92.90;;;;;;5052467;28;20278;-70
2021/03/11 01:51:49;;;;;;;8.83;1.73;;;27.60;92.80;;;;;;5060319;28;20642;-70
2021/03/11 01:54:17;;;;;;;7.83;2.00;;;27.30;93.30;;;;;;5053460;28;20184;-68
2021/03/11 01:56:44;;;;;;;5.43;1.33;;;26.90;93.50;;;;;;5054512;28;20241;-69
2021/03/11 01:59:12;;;;;;;7.40;2.60;;;26.80;93.90;;;;;;5053304;28;20224;-70
2021/03/11 02:01:41;;;;;;;7.10;1.90;;;27.20;93.30;;;;;;5057269;28;20183;-69
2021/03/11 02:04:09;;;;;;;8.17;1.90;;;27.60;93.00;;;;;;5052328;28;20237;-70
2021/03/11 02:06:36;;;;;;;9.73;1.73;;;27.70;92.50;;;;;;5053949;28;20179;-70
2021/03/11 02:09:05;;;;;;;10.37;2.20;;;27.90;92.80;;;;;;5054103;28;20199;-69
2021/03/11 02:11:34;;;;;;;11.43;2.10;;;28.10;92.20;;;;;;5053615;28;20278;-68
2021/03/11 02:14:47;;;;;;;10.17;1.80;;;28.20;92.00;;;;;;5051090;28;20665;-73
2021/03/11 02:17:19;;;;;;;8.50;1.93;;;28.40;92.00;;;;;;5048284;28;20259;-70
2021/03/11 02:20:06;;;;;;;5.93;1.40;;;28.60;92.00;;;;;;5050298;28;20187;-70
2021/03/11 02:23:16;;;;;;;6.83;1.80;;;28.90;91.10;;;;;;5048738;28;20665;-70
2021/03/11 02:26:12;;;;;;;6.33;1.50;;;28.70;91.80;;;;;;5050778;28;20179;-72
2021/03/11 02:29:08;;;;;;;9.53;2.33;;;28.90;91.10;;;;;;5049970;28;20223;-69
2021/03/11 02:31:39;;;;;;;8.60;2.20;;;28.70;91.40;;;;;;5053692;28;20743;-71
2021/03/11 02:34:30;;;;;;;15.33;2.40;;;28.70;91.40;;;;;;5051893;28;20183;-72
2021/03/11 02:37:03;;;;;;;8.03;1.70;;;28.90;91.20;;;;;;5053963;28;20192;-72
2021/03/11 02:39:32;;;;;;;11.43;2.00;;;28.90;91.30;;;;;;5061168;28;20229;-72
2021/03/11 02:42:00;;;;;;;9.30;1.83;;;28.60;91.80;;;;;;5055689;28;20303;-71
2021/03/11 02:44:28;;;;;;;11.13;2.57;;;28.30;91.90;;;;;;5052219;28;20203;-72
2021/03/11 02:46:56;;;;;;;9.87;2.30;;;27.70;92.20;;;;;;5053286;28;20192;-73
2021/03/11 02:49:24;;;;;;;8.07;2.00;;;27.60;92.80;;;;;;5051380;28;20234;-72
2021/03/11 02:51:55;;;;;;;5.93;1.83;;;27.30;93.10;;;;;;5058124;28;20172;-72
2021/03/11 02:54:24;;;;;;;9.40;2.13;;;27.30;93.50;;;;;;5063247;28;20521;-72
2021/03/11 02:56:53;;;;;;;13.33;6.70;;;27.30;93.20;;;;;;5072452;28;20531;-72
2021/03/11 02:59:21;;;;;;;8.87;2.30;;;27.10;93.50;;;;;;5074677;28;20171;-72
2021/03/11 03:01:49;;;;;;;8.97;2.10;;;26.70;93.90;;;;;;5059743;28;20265;-73
2021/03/11 03:04:17;;;;;;;7.77;2.20;;;26.60;94.30;;;;;;5057499;28;20190;-72
2021/03/11 03:06:45;;;;;;;11.50;2.80;;;26.40;94.40;;;;;;5055817;28;20595;-71
2021/03/11 03:09:13;;;;;;;10.83;2.53;;;26.30;94.70;;;;;;5046136;28;20211;-71
2021/03/11 03:11:40;;;;;;;10.53;2.00;;;26.40;94.50;;;;;;5053554;28;20195;-71
2021/03/11 03:14:09;;;;;;;10.63;1.93;;;26.40;94.70;;;;;;5056481;28;20815;-71
2021/03/11 03:16:37;;;;;;;6.10;1.90;;;26.20;94.90;;;;;;5053794;28;20176;-72
2021/03/11 03:19:10;;;;;;;13.60;2.37;;;26.20;94.80;;;;;;5052457;28;20179;-69
2021/03/11 03:21:41;;;;;;;8.70;2.43;;;25.90;95.10;;;;;;5055886;28;20548;-70
2021/03/11 03:24:14;;;;;;;8.90;2.27;;;25.80;95.60;;;;;;5054318;28;20180;-72
2021/03/11 03:26:41;;;;;;;11.50;2.20;;;25.60;96.00;;;;;;5054665;28;20681;-72
2021/03/11 03:29:09;;;;;;;9.27;2.57;;;25.50;96.00;;;;;;5057619;28;20226;-70
2021/03/11 03:31:37;;;;;;;9.87;2.13;;;25.40;96.40;;;;;;5060514;28;20576;-72
2021/03/11 03:34:05;;;;;;;11.90;3.37;;;25.40;96.80;;;;;;5070302;28;20836;-70
2021/03/11 03:36:32;;;;;;;14.83;4.50;;;25.50;96.80;;;;;;5056223;28;20237;-70
2021/03/11 03:38:59;;;;;;;10.13;3.37;;;25.40;96.40;;;;;;5052167;28;20191;-70
2021/03/11 03:41:29;;;;;;;14.13;3.70;;;25.30;96.80;;;;;;5059339;28;20183;-72
2021/03/11 03:43:57;;;;;;;14.70;3.93;;;25.30;97.00;;;;;;5051583;28;20200;-70
2021/03/11 03:46:27;;;;;;;16.00;3.30;;;25.20;97.20;;;;;;5061681;28;20187;-70
2021/03/11 03:49:00;;;;;;;13.53;3.00;;;25.20;97.30;;;;;;5058896;28;20191;-72
2021/03/11 03:51:31;;;;;;;11.77;2.67;;;25.20;97.00;;;;;;5061752;28;20245;-72
2021/03/11 03:54:24;;;;;;;12.13;2.67;;;25.10;97.40;;;;;;5053014;28;20188;-70
2021/03/11 03:57:22;;;;;;;11.20;2.37;;;25.10;97.50;;;;;;5051876;28;20184;-71
2021/03/11 03:59:54;;;;;;;12.87;2.40;;;25.20;97.70;;;;;;5041481;28;20190;-70
2021/03/11 04:02:22;;;;;;;7.13;2.10;;;25.40;97.30;;;;;;5058177;28;20184;-71
2021/03/11 04:04:54;;;;;;;11.43;2.40;;;25.50;97.10;;;;;;5062477;28;20369;-71
2021/03/11 04:07:28;;;;;;;10.90;2.37;;;25.70;96.80;;;;;;5050750;28;20208;-72
2021/03/11 04:09:55;;;;;;;12.47;2.60;;;25.70;96.80;;;;;;5056778;28;20654;-73
2021/03/11 04:12:24;;;;;;;10.83;2.07;;;25.80;96.80;;;;;;5062042;28;20172;-71
2021/03/11 04:14:52;;;;;;;11.03;2.20;;;25.80;96.70;;;;;;5052391;28;20198;-71
2021/03/11 04:17:20;;;;;;;13.73;2.63;;;25.90;96.80;;;;;;5066669;28;20259;-73
2021/03/11 04:19:49;;;;;;;15.23;2.27;;;25.90;96.40;;;;;;5059225;28;20199;-72
2021/03/11 04:22:17;;;;;;;7.87;2.13;;;25.90;96.50;;;;;;5052049;28;20183;-70
2021/03/11 04:24:45;;;;;;;11.03;2.30;;;25.70;96.60;;;;;;5054899;28;20187;-69
2021/03/11 04:27:13;;;;;;;12.67;2.30;;;25.60;96.90;;;;;;5065423;28;20654;-71
2021/03/11 04:29:41;;;;;;;10.73;2.10;;;25.70;96.80;;;;;;5071849;28;20218;-71
2021/03/11 04:32:08;;;;;;;12.30;2.90;;;25.80;96.70;;;;;;5066556;28;20646;-70
2021/03/11 04:34:36;;;;;;;14.03;2.17;;;25.80;96.90;;;;;;5066521;28;20531;-72
2021/03/11 04:37:04;;;;;;;7.33;1.93;;;26.00;96.60;;;;;;5067300;28;20175;-71
2021/03/11 04:39:32;;;;;;;11.67;2.40;;;26.20;96.60;;;;;;5069881;28;20171;-72
2021/03/11 04:42:01;;;;;;;10.50;2.17;;;26.00;96.40;;;;;;5052012;28;20549;-71
2021/03/11 04:44:28;;;;;;;11.03;2.13;;;26.00;96.60;;;;;;5061403;28;20257;-71
2021/03/11 04:46:57;;;;;;;10.87;2.30;;;25.90;96.60;;;;;;5071670;28;20190;-72
2021/03/11 04:49:27;;;;;;;13.53;2.60;;;25.80;96.40;;;;;;5071814;28;20693;-71
2021/03/11 04:51:55;;;;;;;8.30;1.77;;;26.10;96.40;;;;;;5053956;28;20200;-73
2021/03/11 04:54:23;;;;;;;9.87;2.17;;;26.70;95.70;;;;;;5061694;28;20616;-71
2021/03/11 04:56:51;;;;;;;10.10;2.40;;;27.20;94.90;;;;;;5055599;28;20180;-71
2021/03/11 04:59:18;;;;;;;10.23;1.97;;;27.30;94.60;;;;;;5049811;28;20704;-71
2021/03/11 05:01:52;;;;;;;11.00;1.93;;;27.20;94.50;;;;;;5053435;28;20198;-69
2021/03/11 05:04:21;;;;;;;7.17;1.90;;;27.10;94.80;;;;;;5066613;28;20178;-70
2021/03/11 05:06:48;;;;;;;9.53;2.10;;;26.70;95.10;;;;;;5060727;28;20200;-70
2021/03/11 05:09:15;;;;;;;9.83;2.30;;;26.50;95.50;;;;;;5065574;28;20202;-69
2021/03/11 05:11:43;;;;;;;13.23;2.00;;;26.50;95.80;;;;;;5057914;28;20317;-70
2021/03/11 05:14:11;;;;;;;6.33;1.80;;;26.30;95.80;;;;;;5055304;28;20202;-69
2021/03/11 05:16:39;;;;;;;10.03;2.57;;;26.30;96.10;;;;;;5070785;28;20683;-69
2021/03/11 05:19:06;;;;;;;8.87;1.80;;;26.10;96.50;;;;;;5053022;28;20186;-71
2021/03/11 05:21:34;;;;;;;9.60;2.13;;;25.80;96.90;;;;;;5062243;28;20190;-69
2021/03/11 05:24:01;;;;;;;9.00;2.10;;;25.90;97.10;;;;;;5058506;28;20194;-70
2021/03/11 05:26:29;;;;;;;5.43;1.80;;;26.00;96.90;;;;;;5059208;28;20253;-73
2021/03/11 05:28:57;;;;;;;9.50;1.90;;;26.10;97.00;;;;;;5047126;28;20227;-71
2021/03/11 05:31:24;;;;;;;11.73;2.33;;;26.20;96.80;;;;;;5071129;28;20207;-70
2021/03/11 05:33:51;;;;;;;9.10;2.33;;;26.40;96.80;;;;;;5062748;28;20245;-71
2021/03/11 05:36:19;;;;;;;9.50;2.13;;;27.00;96.20;;;;;;5057306;28;20265;-71
2021/03/11 05:38:47;;;;;;;10.87;2.10;;;26.90;95.80;;;;;;5058120;28;20164;-71
2021/03/11 05:41:16;;;;;;;10.70;2.60;;;26.90;96.20;;;;;;5062067;28;20194;-72
2021/03/11 05:43:43;;;;;;;11.00;4.07;;;27.00;96.20;;;;;;5066931;28;20186;-71
2021/03/11 05:46:12;;;;;;;9.27;2.13;;;27.20;96.00;;;;;;5078420;28;20178;-71
2021/03/11 05:48:44;;;;;;;8.97;2.43;;;27.20;95.60;;;;;;5060508;28;20212;-71
2021/03/11 05:51:13;;;;;;;8.77;1.60;;;27.20;96.20;;;;;;5057278;28;20211;-70
2021/03/11 05:53:41;;;;;;;11.40;2.40;;;27.20;96.10;;;;;;5054419;28;20186;-73
2021/03/11 05:56:09;;;;;;;10.47;2.50;;;26.90;96.30;;;;;;5060372;28;20210;-72
2021/03/11 05:58:37;;;;;;;13.80;2.73;;;26.60;96.70;;;;;;5069041;28;20199;-70
2021/03/11 06:01:05;;;;;;;10.07;2.37;;;26.70;97.10;;;;;;5061134;28;20180;-69
2021/03/11 06:03:33;;;;;;;17.40;2.87;;;26.80;97.20;;;;;;5063420;28;20191;-69
2021/03/11 06:06:02;;;;;;;11.07;2.40;;;26.40;96.50;;;;;;5060023;28;20184;-73
2021/03/11 06:08:29;;;;;;;8.00;1.93;;;26.40;97.00;;;;;;5060304;28;20226;-70
2021/03/11 06:10:59;;;;;;;15.73;3.17;;;26.00;97.20;;;;;;5048880;28;20628;-70
2021/03/11 06:13:27;;;;;;;13.70;2.00;;;26.00;97.40;;;;;;5059544;28;20208;-71
2021/03/11 06:16:24;;;;;;;10.40;2.30;;;26.00;97.70;;;;;;5056408;28;20183;-71
2021/03/11 06:18:52;;;;;;;8.57;1.93;;;25.90;97.90;;;;;;5049403;28;20180;-68
2021/03/11 06:21:23;;;;;;;10.43;2.33;;;25.80;98.30;;;;;;5056694;28;20672;-72
2021/03/11 06:23:51;;;;;;;11.20;2.47;;;25.50;98.40;;;;;;5060720;28;20203;-72
2021/03/11 06:26:18;;;;;;;12.33;2.97;;;25.30;99.00;;;;;;5046044;28;20180;-71
2021/03/11 06:28:46;;;;;;;21.70;2.90;;;25.20;99.40;;;;;;5052893;28;20257;-72
2021/03/11 06:31:27;;;;;;;11.60;2.20;;;25.20;99.50;;;;;;5054151;28;20652;-70
2021/03/11 06:33:57;;;;;;;12.43;3.30;;;24.90;99.60;;;;;;5056755;28;20579;-70
2021/03/11 06:36:26;;;;;;;13.17;2.50;;;24.80;99.90;;;;;;5054465;28;20206;-69
2021/03/11 06:38:53;;;;;;;12.43;2.60;;;24.90;99.90;;;;;;5063581;28;20175;-72
2021/03/11 06:41:21;;;;;;;10.00;2.70;;;24.80;99.90;;;;;;5069424;28;20258;-71
2021/03/11 06:43:52;;;;;;;10.60;2.10;;;24.80;99.90;;;;;;5055301;28;20175;-70
2021/03/11 06:46:22;;;;;;;12.10;2.50;;;24.70;99.90;;;;;;5057792;28;20183;-70
2021/03/11 06:48:50;;;;;;;15.03;2.80;;;24.70;99.90;;;;;;5056624;28;20184;-72
2021/03/11 06:51:21;;;;;;;16.37;2.40;;;24.80;99.90;;;;;;5054823;28;20700;-70
2021/03/11 06:53:59;;;;;;;14.13;2.63;;;24.80;99.90;;;;;;5058255;28;20739;-72
2021/03/11 06:56:28;;;;;;;12.23;2.50;;;24.70;99.90;;;;;;5053761;28;20717;-69
2021/03/11 06:59:10;;;;;;;16.47;3.63;;;24.70;99.90;;;;;;5052572;28;20237;-69
2021/03/11 07:01:49;;;;;;;7.63;2.30;;;24.60;99.90;;;;;;5036658;28;20262;-69
2021/03/11 07:04:26;;;;;;;13.57;2.77;;;24.40;99.90;;;;;;5059082;28;20187;-72
2021/03/11 07:06:54;;;;;;;11.60;2.10;;;24.40;99.90;;;;;;5067892;28;20289;-70
2021/03/11 07:09:38;;;;;;;15.50;2.67;;;24.50;99.90;;;;;;5066797;28;20179;-71
2021/03/11 07:12:06;;;;;;;15.27;3.13;;;24.40;99.90;;;;;;5069986;28;20179;-70
2021/03/11 07:14:33;;;;;;;12.30;2.63;;;24.30;99.90;;;;;;5059449;28;20199;-70
2021/03/11 07:17:25;;;;;;;12.27;2.53;;;24.30;99.90;;;;;;5065712;28;20225;-71
2021/03/11 07:20:10;;;;;;;14.67;3.57;;;24.30;99.90;;;;;;5052401;28;20203;-71
2021/03/11 07:22:39;;;;;;;20.57;3.00;;;24.30;99.90;;;;;;5044311;28;20641;-71
2021/03/11 07:25:30;;;;;;;13.20;2.53;;;24.30;99.90;;;;;;5064756;28;20530;-70
2021/03/11 07:27:57;;;;;;;17.70;3.07;;;24.20;99.90;;;;;;5067614;28;20696;-73
2021/03/11 07:30:26;;;;;;;14.53;2.80;;;24.30;99.90;;;;;;5073896;28;20301;-71
2021/03/11 07:33:05;;;;;;;15.80;2.70;;;24.20;99.90;;;;;;5072644;28;20187;-71
2021/03/11 07:35:33;;;;;;;14.27;2.90;;;24.20;99.90;;;;;;5073272;28;20273;-71
2021/03/11 07:38:05;;;;;;;11.50;2.23;;;24.10;99.90;;;;;;5058784;28;20581;-72
2021/03/11 07:40:34;;;;;;;20.73;3.27;;;24.10;99.90;;;;;;5073094;28;20603;-73
2021/03/11 07:43:02;;;;;;;9.40;2.03;;;24.10;99.90;;;;;;5061907;28;20176;-72
2021/03/11 07:45:29;;;;;;;15.53;2.77;;;24.10;99.90;;;;;;5073254;28;20269;-72
2021/03/11 07:47:58;;;;;;;10.53;2.80;;;24.10;99.90;;;;;;5057292;28;20691;-70
2021/03/11 07:50:25;;;;;;;19.17;3.43;;;24.10;99.90;;;;;;5054426;28;20616;-70
2021/03/11 07:52:53;;;;;;;20.10;3.03;;;24.00;99.90;;;;;;5058570;28;20184;-72
2021/03/11 07:55:21;;;;;;;20.87;3.13;;;24.00;99.90;;;;;;5054730;28;20241;-71
2021/03/11 07:57:49;;;;;;;18.40;3.03;;;24.00;99.90;;;;;;5056854;28;20258;-71
2021/03/11 08:00:23;;;;;;;18.87;3.17;;;24.00;99.90;;;;;;5052762;28;20188;-73
2021/03/11 08:03:02;;;;;;;17.03;2.53;;;24.10;99.90;;;;;;5036089;28;20193;-70
2021/03/11 08:05:31;;;;;;;15.10;2.63;;;24.10;99.90;;;;;;5064675;28;20175;-70
2021/03/11 08:08:28;;;;;;;13.80;2.67;;;24.00;99.90;;;;;;5071779;28;20237;-73
2021/03/11 08:11:00;;;;;;;20.00;3.03;;;23.90;99.90;;;;;;5058740;28;20215;-71
2021/03/11 08:13:28;;;;;;;15.57;3.03;;;23.90;99.90;;;;;;5054367;28;20180;-70
2021/03/11 08:15:57;;;;;;;10.93;3.03;;;23.90;99.90;;;;;;5058677;28;20191;-71
2021/03/11 08:18:36;;;;;;;14.93;2.90;;;24.00;99.90;;;;;;5069928;28;20183;-69
2021/03/11 08:21:27;;;;;;;16.57;3.03;;;24.00;99.90;;;;;;5049923;28;20192;-72
2021/03/11 08:23:56;;;;;;;12.53;2.60;;;24.00;99.90;;;;;;5047969;28;20539;-70
2021/03/11 08:26:55;;;;;;;12.17;2.00;;;23.90;99.90;;;;;;5052915;28;20569;-70
2021/03/11 08:29:22;;;;;;;16.17;3.40;;;23.90;99.90;;;;;;5041590;28;20200;-69
2021/03/11 08:31:52;;;;;;;12.17;2.57;;;24.00;99.90;;;;;;5066155;28;20233;-71
2021/03/11 08:34:38;;;;;;;14.80;2.37;;;24.00;99.90;;;;;;5063795;28;20257;-70
2021/03/11 08:37:30;;;;;;;15.83;3.13;;;24.00;99.90;;;;;;5056123;28;20198;-71
2021/03/11 08:39:57;;;;;;;22.10;3.83;;;24.00;99.90;;;;;;5057909;28;20191;-72
2021/03/11 08:42:45;;;;;;;9.27;3.10;;;24.00;99.90;;;;;;5056892;28;20597;-72
2021/03/11 08:45:31;;;;;;;13.20;2.80;;;24.00;99.90;;;;;;5059130;28;20198;-72
2021/03/11 08:48:16;;;;;;;12.30;2.63;;;24.00;99.90;;;;;;5062509;28;20194;-73
2021/03/11 08:50:45;;;;;;;12.97;2.50;;;24.00;99.90;;;;;;5051730;28;20686;-75
2021/03/11 08:53:13;;;;;;;16.33;2.67;;;24.00;99.90;;;;;;5051901;28;20642;-71
2021/03/11 08:55:43;;;;;;;12.80;2.23;;;24.00;99.90;;;;;;5051981;28;20602;-72
2021/03/11 08:58:29;;;;;;;7.00;2.10;;;23.90;99.90;;;;;;5052392;28;20226;-72
2021/03/11 09:01:00;;;;;;;17.50;2.13;;;23.90;99.90;;;;;;5052547;28;20180;-73
2021/03/11 09:03:46;;;;;;;10.80;2.50;;;23.90;99.90;;;;;;5050883;28;20262;-73
2021/03/11 09:06:16;;;;;;;13.90;2.47;;;23.90;99.90;;;;;;5051653;28;20188;-71
2021/03/11 09:08:53;;;;;;;10.87;2.40;;;23.90;99.90;;;;;;5051798;28;20180;-74
2021/03/11 09:11:25;;;;;;;9.70;2.10;;;23.90;99.90;;;;;;5051652;28;20727;-71
2021/03/11 09:13:54;;;;;;;10.70;2.47;;;23.90;99.90;;;;;;5052173;28;20702;-72
2021/03/11 09:16:25;;;;;;;8.97;2.50;;;23.90;99.90;;;;;;5051903;28;20638;-71
2021/03/11 09:18:57;;;;;;;14.97;2.67;;;23.90;99.90;;;;;;5051001;28;20184;-71
2021/03/11 09:21:37;;;;;;;10.43;2.93;;;23.90;99.90;;;;;;5049240;28;20184;-73
2021/03/11 09:24:05;;;;;;;17.40;2.70;;;23.90;99.90;;;;;;5044110;28;20263;-71
2021/03/11 09:26:35;;;;;;;11.00;2.57;;;23.80;99.90;;;;;;5051418;28;20196;-70
2021/03/11 09:29:06;;;;;;;12.13;2.77;;;23.90;99.90;;;;;;5051360;28;20254;-71
2021/03/11 09:31:33;;;;;;;12.27;2.43;;;23.80;99.90;;;;;;5051972;28;20688;-72
2021/03/11 09:34:03;;;;;;;17.67;3.27;;;23.90;99.90;;;;;;5050898;28;20234;-70
2021/03/11 09:36:30;;;;;;;15.00;2.97;;;23.80;99.90;;;;;;5050734;28;20188;-71
2021/03/11 09:39:08;;;;;;;12.80;3.50;;;23.90;99.90;;;;;;5051343;28;20180;-72
2021/03/11 09:41:36;;;;;;;15.00;4.37;;;23.90;99.90;;;;;;5051397;28;20176;-72
2021/03/11 09:44:08;;;;;;;10.93;3.87;;;23.90;99.90;;;;;;5052249;28;20278;-71
2021/03/11 09:46:36;;;;;;;15.37;3.07;;;23.90;99.90;;;;;;5055878;28;20226;-72
2021/03/11 09:49:03;;;;;;;10.13;2.87;;;23.90;99.90;;;;;;5053825;28;20218;-74
2021/03/11 09:51:34;;;;;;;17.13;3.97;;;23.90;99.90;;;;;;5053556;28;20212;-74
2021/03/11 09:54:04;;;;;;;12.03;3.20;;;23.90;99.90;;;;;;5051615;28;20203;-73
2021/03/11 09:56:43;;;;;;;13.50;3.50;;;23.90;99.90;;;;;;5054472;28;20650;-71
2021/03/11 09:59:13;;;;;;;11.53;3.13;;;23.80;99.90;;;;;;5057590;28;20372;-74
2021/03/11 10:01:50;;;;;;;14.60;3.07;;;23.80;99.90;;;;;;5061827;28;20259;-70
2021/03/11 10:04:23;;;;;;;12.13;2.90;;;23.70;99.90;;;;;;5071209;28;20210;-74
2021/03/11 10:07:01;;;;;;;12.47;3.50;;;23.60;99.90;;;;;;5058122;28;20231;-72
2021/03/11 10:09:39;;;;;;;11.73;3.37;;;23.50;99.90;;;;;;5073117;28;20179;-70
2021/03/11 10:12:07;;;;;;;11.50;2.63;;;23.30;99.90;;;;;;5059570;28;20183;-69
2021/03/11 10:14:35;;;;;;;9.57;3.00;;;23.20;99.90;;;;;;5058841;28;20172;-68
2021/03/11 10:17:06;;;;;;;13.93;2.93;;;23.10;99.90;;;;;;5059506;28;20188;-69
2021/03/11 10:19:40;;;;;;;12.70;2.90;;;23.00;99.90;;;;;;5055711;28;20191;-71
2021/03/11 10:22:14;;;;;;;14.33;3.27;;;22.90;99.90;;;;;;5060151;28;20529;-69
2021/03/11 10:24:43;;;;;;;12.60;3.10;;;23.00;99.90;;;;;;5070696;28;20206;-70
2021/03/11 10:27:23;;;;;;;12.03;3.00;;;23.00;99.90;;;;;;5062218;28;20230;-69
2021/03/11 10:30:26;;;;;;;10.83;2.97;;;22.90;99.90;;;;;;5072392;28;20297;-69
2021/03/11 10:32:58;;;;;;;19.20;4.63;;;22.90;99.90;;;;;;5045014;28;20187;-69
2021/03/11 10:35:39;;;;;;;19.23;4.87;;;22.90;99.90;;;;;;5064641;28;20578;-69
2021/03/11 10:38:21;;;;;;;20.03;4.83;;;23.00;99.90;;;;;;5054785;28;20238;-71
2021/03/11 10:40:50;;;;;;;11.20;3.43;;;22.90;99.90;;;;;;5045454;28;20725;-72
2021/03/11 10:43:23;;;;;;;26.03;4.03;;;22.90;99.90;;;;;;5062421;28;20294;-69
2021/03/11 10:45:51;;;;;;;14.27;3.40;;;23.00;99.90;;;;;;5060249;28;20301;-71
2021/03/11 10:48:18;;;;;;;13.17;3.30;;;22.90;99.90;;;;;;5068044;28;20195;-70
2021/03/11 10:50:52;;;;;;;17.03;3.27;;;22.90;99.90;;;;;;5058176;28;20218;-70
2021/03/11 10:53:36;;;;;;;17.93;3.63;;;23.00;99.90;;;;;;5073135;28;20186;-71
2021/03/11 10:56:07;;;;;;;13.33;3.17;;;23.00;99.90;;;;;;5059024;28;20180;-68
2021/03/11 10:58:35;;;;;;;20.20;3.57;;;22.90;99.90;;;;;;5074730;28;20225;-70
2021/03/11 11:01:09;;;;;;;15.23;3.67;;;22.90;99.90;;;;;;5074343;28;20179;-68
2021/03/11 11:03:38;;;;;;;12.70;3.07;;;22.90;99.90;;;;;;5074101;28;20361;-70
2021/03/11 11:06:06;;;;;;;17.13;3.10;;;22.90;99.90;;;;;;5053592;28;20187;-68
2021/03/11 11:08:35;;;;;;;14.13;3.40;;;22.80;99.90;;;;;;5055503;28;20669;-69
2021/03/11 11:11:03;;;;;;;13.67;3.17;;;22.80;99.90;;;;;;5055998;28;20784;-70
2021/03/11 11:13:31;;;;;;;17.00;3.60;;;22.80;99.90;;;;;;5073000;28;20176;-69
2021/03/11 11:15:58;;;;;;;17.00;3.77;;;22.80;99.90;;;;;;5074173;28;20236;-68
2021/03/11 11:18:26;;;;;;;11.47;3.50;;;22.80;99.90;;;;;;5071189;28;20180;-67
2021/03/11 11:20:53;;;;;;;12.63;3.27;;;22.70;99.90;;;;;;5053621;28;20183;-68
2021/03/11 11:23:20;;;;;;;13.10;3.53;;;22.70;99.90;;;;;;5052990;28;20188;-67
2021/03/11 11:25:48;;;;;;;11.43;3.37;;;22.60;99.90;;;;;;5054398;28;20180;-67
2021/03/11 11:28:15;;;;;;;13.27;3.13;;;22.60;99.90;;;;;;5055998;28;20219;-68
2021/03/11 11:30:43;;;;;;;11.47;3.23;;;22.60;99.90;;;;;;5073703;28;20669;-68
2021/03/11 11:33:10;;;;;;;16.93;3.93;;;22.50;99.90;;;;;;5069989;28;20226;-68
2021/03/11 11:35:37;;;;;;;12.03;3.60;;;22.50;99.90;;;;;;5053984;28;20587;-67
2021/03/11 11:38:05;;;;;;;17.60;3.60;;;22.50;99.90;;;;;;5068923;28;20179;-68
2021/03/11 11:40:32;;;;;;;17.13;3.90;;;22.50;99.90;;;;;;5059902;28;20697;-67
2021/03/11 11:43:00;;;;;;;12.00;3.50;;;22.50;99.90;;;;;;5067525;28;20229;-69
2021/03/11 11:45:30;;;;;;;16.27;3.83;;;22.50;99.90;;;;;;5073591;28;20178;-67
2021/03/11 11:47:58;;;;;;;17.10;3.50;;;22.40;99.90;;;;;;5073567;28;20246;-67
2021/03/11 11:50:25;;;;;;;16.63;4.10;;;22.40;99.90;;;;;;5059633;28;20837;-67
2021/03/11 11:52:52;;;;;;;15.13;3.80;;;22.40;99.90;;;;;;5044174;28;20654;-68
2021/03/11 11:55:20;;;;;;;9.10;3.30;;;22.40;99.90;;;;;;5055802;28;20188;-67
2021/03/11 11:57:51;;;;;;;12.20;3.87;;;22.40;99.90;;;;;;5047941;28;20554;-68
2021/03/11 12:00:19;;;;;;;18.40;4.10;;;22.40;99.90;;;;;;5052351;28;20199;-66
2021/03/11 12:02:46;;;;;;;10.43;3.37;;;22.40;99.90;;;;;;5057065;28;20195;-67
2021/03/11 12:05:14;;;;;;;16.77;3.77;;;22.50;99.90;;;;;;5058043;28;20519;-67
2021/03/11 12:07:42;;;;;;;15.23;3.60;;;22.50;99.90;;;;;;5052426;28;20192;-67
2021/03/11 12:10:10;;;;;;;15.10;4.43;;;22.50;99.90;;;;;;5051863;28;20290;-69
2021/03/11 12:12:38;;;;;;;17.50;4.57;;;22.50;99.90;;;;;;5052581;28;20630;-67
2021/03/11 12:15:07;;;;;;;13.57;3.43;;;22.50;99.90;;;;;;5052396;28;20716;-68
2021/03/11 12:17:34;;;;;;;9.17;3.40;;;22.50;99.90;;;;;;5052774;28;20184;-69
2021/03/11 12:20:03;;;;;;;17.70;4.23;;;22.50;99.90;;;;;;5050981;28;20562;-69
2021/03/11 12:22:31;;;;;;;13.90;4.03;;;22.60;99.90;;;;;;5051433;28;20186;-68
2021/03/11 12:24:58;;;;;;;11.20;3.10;;;22.60;99.90;;;;;;5052706;28;20183;-69
2021/03/11 12:27:28;;;;;;;17.50;3.57;;;22.60;99.90;;;;;;5050750;28;20228;-69
2021/03/11 12:29:56;;;;;;;20.43;4.27;;;22.60;99.90;;;;;;5052802;28;20210;-68
2021/03/11 12:32:23;;;;;;;19.87;3.87;;;22.60;99.90;;;;;;5052548;28;20184;-68
2021/03/11 12:34:51;;;;;;;17.23;4.40;;;22.60;99.90;;;;;;5052190;28;20186;-68
2021/03/11 12:37:18;;;;;;;15.90;3.87;;;22.50;99.90;;;;;;5052643;28;20188;-69
2021/03/11 12:39:46;;;;;;;15.20;3.10;;;22.60;99.90;;;;;;5051329;28;20314;-69
2021/03/11 12:42:13;;;;;;;19.30;3.93;;;22.50;99.90;;;;;;5052214;28;20176;-68
2021/03/11 12:44:41;;;;;;;16.40;3.13;;;22.60;99.90;;;;;;5052321;28;20187;-69
2021/03/11 12:47:08;;;;;;;15.67;3.87;;;22.60;99.90;;;;;;5052433;28;20190;-68
2021/03/11 12:49:35;;;;;;;14.73;4.03;;;22.60;99.90;;;;;;5051673;28;20180;-69
2021/03/11 12:52:03;;;;;;;19.00;3.97;;;22.60;99.90;;;;;;5051413;28;20650;-70
2021/03/11 12:54:30;;;;;;;15.53;4.13;;;22.60;99.90;;;;;;5051815;28;20266;-69
2021/03/11 12:56:58;;;;;;;12.90;3.20;;;22.70;99.90;;;;;;5051800;28;20191;-70
2021/03/11 12:59:25;;;;;;;10.80;2.90;;;22.70;99.90;;;;;;5052386;28;20186;-71